createdAt,value
2018-03-14T00:01:51.882Z,8.53
2018-03-14T00:05:54.462Z,8.37
2018-03-14T00:09:57.863Z,8.60
2018-03-14T00:14:00.560Z,8.63
2018-03-14T00:18:08.062Z,8.93
2018-03-14T00:22:10.704Z,8.17
2018-03-14T00:26:14.030Z,8.23
2018-03-14T00:30:16.600Z,8.87
2018-03-14T00:34:19.141Z,9.70
2018-03-14T00:38:21.718Z,9.97
2018-03-14T00:42:24.320Z,9.13
2018-03-14T00:46:26.899Z,8.60
2018-03-14T00:50:30.361Z,9.23
2018-03-14T00:54:33.021Z,9.60
2018-03-14T00:58:35.581Z,9.63
2018-03-14T01:02:38.148Z,10.10
2018-03-14T01:06:40.690Z,8.40
2018-03-14T01:10:43.264Z,8.63
2018-03-14T01:14:45.803Z,8.47
2018-03-14T01:18:48.485Z,8.77
2018-03-14T01:22:51.034Z,9.30
2018-03-14T01:26:53.603Z,8.93
2018-03-14T01:30:56.157Z,8.67
2018-03-14T01:34:59.583Z,10.30
2018-03-14T01:39:08.539Z,10.67
2018-03-14T01:43:11.233Z,9.97
2018-03-14T01:47:13.773Z,8.70
2018-03-14T01:51:16.338Z,9.10
2018-03-14T01:55:18.868Z,8.43
2018-03-14T01:59:22.203Z,7.93
2018-03-14T02:03:24.763Z,7.40
2018-03-14T02:07:27.314Z,7.57
2018-03-14T02:11:29.916Z,7.47
2018-03-14T02:15:32.472Z,7.63
2018-03-14T02:19:35.002Z,8.57
2018-03-14T02:23:37.582Z,7.77
2018-03-14T02:27:40.122Z,7.30
2018-03-14T02:31:42.711Z,6.57
2018-03-14T02:35:45.275Z,7.60
2018-03-14T02:39:48.284Z,7.10
2018-03-14T02:43:50.844Z,7.17
2018-03-14T02:47:53.505Z,7.83
2018-03-14T02:51:56.798Z,7.67
2018-03-14T02:55:59.336Z,8.40
2018-03-14T03:00:02.623Z,7.63
2018-03-14T03:04:05.205Z,8.13
2018-03-14T03:08:07.731Z,9.47
2018-03-14T03:12:10.771Z,7.43
2018-03-14T03:16:14.069Z,8.33
2018-03-14T03:20:16.918Z,7.30
2018-03-14T03:24:20.221Z,8.17
2018-03-14T03:28:22.835Z,7.97
2018-03-14T03:32:26.134Z,8.67
2018-03-14T03:36:28.680Z,9.03
2018-03-14T03:40:31.969Z,8.00
2018-03-14T03:44:34.521Z,7.87
2018-03-14T03:48:40.170Z,8.13
2018-03-14T03:52:42.741Z,7.90
2018-03-14T03:56:45.252Z,8.50
2018-03-14T04:00:47.800Z,8.13
2018-03-14T04:04:51.095Z,8.17
2018-03-14T04:08:53.691Z,7.97
2018-03-14T04:12:56.230Z,9.23
2018-03-14T04:16:59.636Z,8.53
2018-03-14T04:21:02.152Z,8.90
2018-03-14T04:25:04.721Z,8.93
2018-03-14T04:29:07.246Z,8.27
2018-03-14T04:33:09.968Z,8.00
2018-03-14T04:37:13.262Z,8.70
2018-03-14T04:41:16.217Z,7.90
2018-03-14T04:45:19.590Z,8.27
2018-03-14T04:49:22.166Z,8.13
2018-03-14T04:53:24.704Z,8.80
2018-03-14T04:57:27.279Z,8.40
2018-03-14T05:01:29.791Z,10.43
2018-03-14T05:05:33.408Z,8.93
2018-03-14T05:09:35.963Z,9.93
2018-03-14T05:13:38.517Z,8.67
2018-03-14T05:17:41.047Z,8.90
2018-03-14T05:21:43.878Z,10.60
2018-03-14T05:25:46.412Z,8.50
2018-03-14T05:29:48.986Z,7.70
2018-03-14T05:33:51.518Z,7.33
2018-03-14T05:37:54.098Z,8.30
2018-03-14T05:41:56.669Z,8.17
2018-03-14T05:45:59.329Z,7.93
2018-03-14T05:50:03.866Z,8.03
2018-03-14T05:54:06.434Z,7.70
2018-03-14T05:58:08.964Z,6.67
2018-03-14T06:02:11.578Z,7.93
2018-03-14T06:06:14.808Z,9.37
2018-03-14T06:10:17.387Z,26.33
2018-03-14T06:14:24.515Z,22.53
2018-03-14T06:18:27.067Z,15.27
2018-03-14T06:22:29.610Z,13.17
2018-03-14T06:26:32.156Z,14.93
2018-03-14T06:30:34.681Z,12.30
2018-03-14T06:34:37.534Z,13.73
2018-03-14T06:38:40.071Z,12.27
2018-03-14T06:42:42.632Z,12.43
2018-03-14T06:46:45.164Z,12.73
2018-03-14T06:50:47.796Z,11.70
2018-03-14T06:54:56.436Z,13.83
2018-03-14T06:59:10.804Z,13.57
2018-03-14T07:03:25.480Z,13.57
2018-03-14T07:07:28.161Z,14.50
2018-03-14T07:11:30.687Z,15.27
2018-03-14T07:15:33.236Z,13.87
2018-03-14T07:19:35.772Z,13.40
2018-03-14T07:23:39.322Z,14.80
2018-03-14T07:27:41.867Z,12.77
2018-03-14T07:31:44.451Z,16.73
2018-03-14T07:35:47.022Z,15.10
2018-03-14T07:39:50.353Z,14.33
2018-03-14T07:43:54.590Z,14.07
2018-03-14T07:47:57.911Z,14.70
2018-03-14T07:52:00.442Z,12.83
2018-03-14T07:56:03.014Z,9.17
2018-03-14T08:00:06.355Z,11.10
2018-03-14T08:04:09.669Z,11.80
2018-03-14T08:08:12.208Z,11.23
2018-03-14T08:12:14.763Z,11.73
2018-03-14T08:16:17.280Z,13.57
2018-03-14T08:20:19.885Z,12.53
2018-03-14T08:24:22.373Z,11.93
2018-03-14T08:28:24.958Z,12.03
2018-03-14T08:32:30.951Z,11.97
2018-03-14T08:36:35.557Z,12.97
2018-03-14T08:40:38.853Z,13.27
2018-03-14T08:44:46.942Z,12.87
2018-03-14T08:48:49.543Z,10.87
2018-03-14T08:52:52.119Z,14.37
2018-03-14T08:56:54.660Z,10.67
2018-03-14T09:00:57.212Z,13.50
2018-03-14T09:04:59.750Z,12.50
2018-03-14T09:09:04.091Z,9.90
2018-03-14T09:13:07.386Z,7.97
2018-03-14T09:17:09.994Z,9.30
2018-03-14T09:21:12.543Z,7.70
2018-03-14T09:25:15.107Z,9.07
2018-03-14T09:29:17.623Z,6.70
2018-03-14T09:33:20.230Z,8.83
2018-03-14T09:37:22.755Z,7.27
2018-03-14T09:41:26.081Z,6.60
2018-03-14T09:45:29.377Z,5.60
2018-03-14T09:49:43.699Z,5.70
2018-03-14T09:53:46.300Z,5.73
2018-03-14T09:57:50.836Z,7.67
2018-03-14T10:01:54.129Z,6.53
2018-03-14T10:05:57.657Z,6.70
2018-03-14T10:10:00.195Z,7.40
2018-03-14T10:14:03.843Z,6.83
2018-03-14T10:18:08.374Z,7.10
2018-03-14T10:22:10.945Z,6.60
2018-03-14T10:26:13.485Z,7.10
2018-03-14T10:30:16.415Z,7.37
2018-03-14T10:34:18.978Z,7.73
2018-03-14T10:38:21.523Z,7.37
2018-03-14T10:42:24.800Z,7.47
2018-03-14T10:46:27.366Z,7.00
2018-03-14T10:50:30.196Z,6.67
2018-03-14T10:54:33.602Z,6.73
2018-03-14T10:58:36.177Z,6.10
2018-03-14T11:02:44.276Z,6.60
2018-03-14T11:06:46.793Z,6.33
2018-03-14T11:10:49.438Z,5.63
2018-03-14T11:14:51.983Z,6.13
2018-03-14T11:18:54.547Z,6.27
2018-03-14T11:22:57.842Z,6.57
2018-03-14T11:27:00.490Z,6.17
2018-03-14T11:31:03.012Z,5.43
2018-03-14T11:35:05.584Z,6.10
2018-03-14T11:39:08.878Z,5.43
2018-03-14T11:43:11.520Z,6.30
2018-03-14T11:47:14.823Z,5.40
2018-03-14T11:51:17.385Z,5.13
2018-03-14T11:55:19.926Z,5.03
2018-03-14T11:59:22.531Z,4.80
2018-03-14T12:03:25.057Z,4.47
2018-03-14T12:07:39.693Z,4.63
2018-03-14T12:11:42.269Z,4.47
2018-03-14T12:15:45.583Z,4.50
2018-03-14T12:19:48.881Z,4.67
2018-03-14T12:23:51.833Z,3.80
2018-03-14T12:27:58.275Z,4.20
2018-03-14T12:32:00.812Z,3.80
2018-03-14T12:36:03.333Z,4.00
2018-03-14T12:40:06.680Z,4.00
2018-03-14T12:44:09.212Z,3.53
2018-03-14T12:48:11.786Z,4.80
2018-03-14T12:52:15.082Z,4.60
2018-03-14T12:56:18.415Z,3.63
2018-03-14T13:00:21.719Z,4.57
2018-03-14T13:04:24.357Z,5.30
2018-03-14T13:08:26.889Z,5.10
2018-03-14T13:12:29.443Z,4.43
2018-03-14T13:16:31.983Z,4.93
2018-03-14T13:20:34.552Z,5.40
2018-03-14T13:24:40.212Z,6.53
2018-03-14T13:28:42.996Z,6.37
2018-03-14T13:32:45.542Z,4.50
2018-03-14T13:36:48.163Z,5.13
2018-03-14T13:40:50.725Z,4.87
2018-03-14T13:44:53.306Z,5.20
2018-03-14T13:48:56.185Z,4.03
2018-03-14T13:52:59.693Z,4.23
2018-03-14T13:57:03.212Z,3.70
2018-03-14T14:01:05.885Z,3.30
2018-03-14T14:05:08.427Z,5.53
2018-03-14T14:09:11.048Z,4.30
2018-03-14T14:13:13.603Z,4.90
2018-03-14T14:17:19.964Z,3.40
2018-03-14T14:21:23.472Z,3.47
2018-03-14T14:25:26.065Z,5.17
2018-03-14T14:29:28.599Z,3.53
2018-03-14T14:33:31.156Z,3.73
2018-03-14T14:37:34.615Z,3.60
2018-03-14T14:41:37.248Z,3.70
2018-03-14T14:45:39.735Z,3.80
2018-03-14T14:49:43.561Z,4.20
2018-03-14T14:53:46.062Z,3.93
2018-03-14T14:57:52.826Z,4.00
2018-03-14T15:01:55.365Z,3.50
2018-03-14T15:05:58.362Z,4.07
2018-03-14T15:10:00.874Z,4.17
2018-03-14T15:14:03.422Z,3.87
2018-03-14T15:18:05.934Z,4.70
2018-03-14T15:22:10.239Z,4.43
2018-03-14T15:26:12.764Z,4.23
2018-03-14T15:30:15.551Z,4.20
2018-03-14T15:34:18.060Z,3.87
2018-03-14T15:38:20.894Z,4.20
2018-03-14T15:42:23.404Z,4.17
2018-03-14T15:46:26.053Z,4.00
2018-03-14T15:50:28.582Z,5.30
2018-03-14T15:54:31.190Z,3.90
2018-03-14T15:58:33.726Z,3.93
2018-03-14T16:02:39.796Z,3.50
2018-03-14T16:06:42.337Z,3.57
2018-03-14T16:10:46.897Z,3.70
2018-03-14T16:14:50.193Z,3.60
2018-03-14T16:18:52.872Z,3.77
2018-03-14T16:22:55.393Z,3.90
2018-03-14T16:26:58.063Z,3.60
2018-03-14T16:31:00.615Z,3.70
2018-03-14T16:35:03.570Z,4.43
2018-03-14T16:39:06.870Z,3.50
2018-03-14T16:43:09.459Z,3.93
2018-03-14T16:47:11.990Z,3.70
2018-03-14T16:51:15.421Z,3.37
2018-03-14T16:55:25.338Z,3.40
2018-03-14T16:59:27.911Z,3.30
2018-03-14T17:03:30.454Z,3.83
2018-03-14T17:07:33.058Z,4.27
2018-03-14T17:11:35.666Z,3.50
2018-03-14T17:15:38.241Z,3.70
2018-03-14T17:19:42.516Z,4.33
2018-03-14T17:23:45.056Z,3.37
2018-03-14T17:27:47.562Z,3.60
2018-03-14T17:31:50.220Z,3.83
2018-03-14T17:35:53.676Z,4.93
2018-03-14T17:39:56.239Z,4.27
2018-03-14T17:43:59.518Z,4.53
2018-03-14T17:48:02.082Z,5.50
2018-03-14T17:52:04.617Z,6.60
2018-03-14T17:56:08.456Z,6.97
2018-03-14T18:00:12.922Z,6.53
2018-03-14T18:04:15.491Z,7.33
2018-03-14T18:08:18.069Z,6.57
2018-03-14T18:12:24.367Z,6.67
2018-03-14T18:16:27.685Z,7.93
2018-03-14T18:20:31.094Z,9.63
2018-03-14T18:24:33.630Z,8.63
2018-03-14T18:28:36.198Z,9.43
2018-03-14T18:32:39.663Z,10.57
2018-03-14T18:36:42.350Z,12.13
2018-03-14T18:40:45.633Z,10.53
2018-03-14T18:44:49.186Z,11.20
2018-03-14T18:48:51.741Z,11.07
2018-03-14T18:52:54.474Z,11.93
2018-03-14T18:56:57.031Z,12.50
2018-03-14T19:01:01.383Z,12.60
2018-03-14T19:05:04.693Z,13.50
2018-03-14T19:09:08.092Z,14.53
2018-03-14T19:13:10.655Z,13.77
2018-03-14T19:17:14.566Z,13.90
2018-03-14T19:21:17.871Z,14.87
2018-03-14T19:25:21.517Z,12.83
2018-03-14T19:29:25.514Z,12.70
2018-03-14T19:33:28.160Z,13.20
2018-03-14T19:37:33.407Z,13.00
2018-03-14T19:41:36.479Z,13.17
2018-03-14T19:45:39.990Z,12.87
2018-03-14T19:49:42.581Z,14.73
2018-03-14T19:53:45.128Z,13.20
2018-03-14T19:57:47.933Z,12.73
2018-03-14T20:01:50.498Z,13.17
2018-03-14T20:05:53.037Z,13.77
2018-03-14T20:09:56.509Z,13.60
2018-03-14T20:14:01.432Z,13.87
2018-03-14T20:18:05.952Z,13.77
2018-03-14T20:22:10.537Z,14.13
2018-03-14T20:26:13.187Z,13.43
2018-03-14T20:30:15.756Z,15.37
2018-03-14T20:34:21.688Z,14.80
2018-03-14T20:38:24.259Z,14.13
2018-03-14T20:42:30.498Z,13.80
2018-03-14T20:46:33.939Z,13.73
2018-03-14T20:50:37.572Z,13.77
2018-03-14T20:54:40.888Z,14.10
2018-03-14T20:58:44.295Z,13.50
2018-03-14T21:02:47.537Z,13.53
2018-03-14T21:06:50.840Z,12.57
2018-03-14T21:10:54.386Z,13.77
2018-03-14T21:14:56.961Z,13.53
2018-03-14T21:18:59.513Z,13.40
2018-03-14T21:23:02.046Z,15.90
2018-03-14T21:27:04.643Z,15.93
2018-03-14T21:31:07.222Z,16.00
2018-03-14T21:35:09.799Z,15.63
2018-03-14T21:39:12.338Z,15.37
2018-03-14T21:43:23.735Z,15.30
2018-03-14T21:47:26.271Z,15.57
2018-03-14T21:51:28.858Z,14.57
2018-03-14T21:55:39.010Z,15.30
2018-03-14T21:59:42.537Z,15.37
2018-03-14T22:03:45.046Z,14.60
2018-03-14T22:07:47.606Z,15.00
2018-03-14T22:11:50.123Z,14.23
2018-03-14T22:15:54.721Z,12.70
2018-03-14T22:19:57.256Z,12.00
2018-03-14T22:24:00.568Z,13.30
2018-03-14T22:28:03.092Z,12.83
2018-03-14T22:32:11.507Z,13.60
2018-03-14T22:36:14.050Z,12.93
2018-03-14T22:40:16.762Z,13.00
2018-03-14T22:44:19.279Z,13.83
2018-03-14T22:48:21.866Z,13.87
2018-03-14T22:52:24.401Z,13.90
2018-03-14T22:56:27.050Z,12.87
2018-03-14T23:00:29.630Z,13.83
2018-03-14T23:04:32.184Z,15.10
2018-03-14T23:08:34.700Z,14.83
2018-03-14T23:12:37.274Z,15.87
2018-03-14T23:16:40.561Z,15.50
2018-03-14T23:20:43.102Z,16.50
2018-03-14T23:24:45.666Z,14.93
2018-03-14T23:28:48.212Z,15.47
2018-03-14T23:32:50.737Z,15.53
2018-03-14T23:36:54.371Z,16.17
2018-03-14T23:40:57.671Z,14.97
2018-03-14T23:45:00.237Z,14.87
2018-03-14T23:49:02.789Z,15.30
2018-03-14T23:53:08.066Z,15.13
2018-03-14T23:57:10.584Z,15.10
